Time;durP1;ratioP1;P1;durP2;ratioP2;P2;SDS_P1;SDS_P2;PMS_P1;PMS_P2;Temp;Humidity;BMP_temperature;BMP_pressure;BME280_temperature;BME280_humidity;BME280_pressure;Samples;Min_cycle;Max_cycle;Signal;HPM_P1;HPM_P2
2023/09/06 00:00:42;;;;;;;9.02;5.43;;;;;;;15.92;68.44;99434.75;5109821;27;20046;-74
2023/09/06 00:03:10;;;;;;;10.68;6.22;;;;;;;15.89;68.69;99416.25;5115496;27;20050;-73
2023/09/06 00:05:36;;;;;;;16.50;6.22;;;;;;;15.87;68.59;99415.56;5068923;27;20058;-72
2023/09/06 00:08:08;;;;;;;13.77;6.10;;;;;;;15.86;68.37;99393.19;5099493;27;20141;-72
2023/09/06 00:10:33;;;;;;;9.35;5.72;;;;;;;15.82;68.89;99440.19;5120473;27;20054;-77
2023/09/06 00:12:58;;;;;;;9.93;5.78;;;;;;;15.77;68.83;99382.50;5101364;27;20772;-76
2023/09/06 00:15:23;;;;;;;9.35;5.53;;;;;;;15.70;68.79;99427.91;5119760;27;20043;-75
2023/09/06 00:17:49;;;;;;;10.07;6.18;;;;;;;15.64;69.14;99425.00;5098897;27;20405;-75
2023/09/06 00:20:20;;;;;;;10.48;6.80;;;;;;;15.54;69.31;99420.50;5099374;27;20398;-74
2023/09/06 00:22:53;;;;;;;9.63;5.60;;;;;;;15.50;69.58;99531.91;5099297;27;20049;-73
2023/09/06 00:25:18;;;;;;;8.52;5.10;;;;;;;15.45;70.20;99429.41;5115727;27;20448;-76
2023/09/06 00:27:44;;;;;;;11.23;5.70;;;;;;;15.41;69.89;99427.16;5099419;27;20034;-71
2023/09/06 00:30:09;;;;;;;9.30;6.15;;;;;;;15.35;70.22;99425.06;5118145;27;20045;-73
2023/09/06 00:32:34;;;;;;;9.80;6.25;;;;;;;15.29;70.42;99425.63;5088831;27;20031;-72
2023/09/06 00:35:00;;;;;;;10.43;5.85;;;;;;;15.19;70.89;99415.75;5100892;27;20205;-74
2023/09/06 00:37:37;;;;;;;10.27;5.63;;;;;;;15.15;71.24;99432.28;5095979;27;20031;-73
2023/09/06 00:40:22;;;;;;;8.65;5.65;;;;;;;15.05;71.95;99418.88;5082140;27;20042;-73
2023/09/06 00:42:52;;;;;;;;;;;;;;;15.12;71.55;99408.44;5100007;27;20054;-72
2023/09/06 00:45:21;;;;;;;9.70;5.35;;;;;;;14.95;71.48;99411.81;5116228;27;19919;-74
2023/09/06 00:47:49;;;;;;;33.83;6.38;;;;;;;14.88;72.25;99411.56;5118298;27;20038;-74
2023/09/06 00:50:16;;;;;;;10.85;5.93;;;;;;;14.81;72.83;99410.41;5099757;27;20038;-74
2023/09/06 00:52:42;;;;;;;9.60;5.43;;;;;;;14.76;73.25;99413.53;5076972;27;20043;-73
2023/09/06 00:55:09;;;;;;;7.70;5.65;;;;;;;14.71;73.48;99405.06;5096777;27;20043;-72
2023/09/06 00:57:35;;;;;;;9.98;6.13;;;;;;;14.68;73.70;99409.84;5096685;27;20046;-73
2023/09/06 01:00:05;;;;;;;9.73;5.95;;;;;;;14.65;73.92;99399.41;5110280;27;20053;-71
2023/09/06 01:02:31;;;;;;;8.50;5.60;;;;;;;14.61;73.84;99403.38;5114693;27;20042;-70
2023/09/06 01:04:57;;;;;;;10.05;5.60;;;;;;;14.58;73.78;99403.63;5117244;27;20428;-68
2023/09/06 01:07:27;;;;;;;9.10;5.90;;;;;;;14.56;74.08;99390.34;5117253;27;20050;-67
2023/09/06 01:09:52;;;;;;;10.75;5.68;;;;;;;14.54;74.55;99392.38;5116977;27;20057;-67
2023/09/06 01:12:17;;;;;;;7.47;5.20;;;;;;;14.52;74.93;99381.78;5117319;27;20042;-69
2023/09/06 01:14:43;;;;;;;8.73;5.75;;;;;;;14.54;75.07;99381.63;5117308;27;20408;-68
2023/09/06 01:17:10;;;;;;;9.18;5.60;;;;;;;14.57;75.45;99386.69;5117193;27;20497;-67
2023/09/06 01:19:39;;;;;;;9.63;5.82;;;;;;;14.59;75.26;99374.00;5117111;27;20045;-69
2023/09/06 01:22:08;;;;;;;9.18;5.97;;;;;;;14.60;75.02;99362.28;5098272;27;20041;-68
2023/09/06 01:24:34;;;;;;;10.57;6.03;;;;;;;14.64;74.30;99371.75;5117021;27;20047;-68
2023/09/06 01:27:00;;;;;;;9.05;6.13;;;;;;;14.64;74.38;99361.00;5117131;27;20046;-69
2023/09/06 01:29:29;;;;;;;11.85;6.30;;;;;;;14.66;75.38;99359.03;5096901;27;20034;-67
2023/09/06 01:31:54;;;;;;;9.05;5.80;;;;;;;14.61;73.85;99337.13;5098178;27;20038;-68
2023/09/06 01:34:19;;;;;;;10.40;6.30;;;;;;;14.59;73.34;99317.66;5081375;27;20053;-67
2023/09/06 01:36:45;;;;;;;9.45;5.80;;;;;;;14.51;74.15;99361.28;5116024;27;20034;-69
2023/09/06 01:39:10;;;;;;;8.98;5.65;;;;;;;14.50;75.01;99334.59;5097416;27;20049;-74
2023/09/06 01:41:35;;;;;;;8.82;5.93;;;;;;;14.49;75.38;99324.88;5082845;27;20034;-74
2023/09/06 01:44:01;;;;;;;9.98;6.88;;;;;;;14.52;75.36;99329.94;5098150;27;20534;-75
2023/09/06 01:46:26;;;;;;;10.32;5.65;;;;;;;14.55;74.96;99342.25;5117069;27;20527;-73
2023/09/06 01:48:51;;;;;;;9.77;5.80;;;;;;;14.63;74.49;99337.00;5098168;27;20914;-76
2023/09/06 01:51:16;;;;;;;11.02;6.25;;;;;;;14.67;74.61;99327.69;5073379;28;20044;-75
2023/09/06 01:53:42;;;;;;;8.82;6.03;;;;;;;14.74;73.49;99335.00;5056537;28;20052;-76
2023/09/06 01:56:08;;;;;;;10.18;5.75;;;;;;;14.79;73.74;99327.34;5056271;28;20404;-75
2023/09/06 01:58:34;;;;;;;12.23;6.00;;;;;;;14.84;73.43;99335.84;5073434;28;20042;-75
2023/09/06 02:01:01;;;;;;;10.05;5.60;;;;;;;14.90;73.32;99323.66;5056267;28;20047;-73
2023/09/06 02:03:29;;;;;;;9.75;5.38;;;;;;;14.93;72.51;99336.81;5073191;28;20036;-76
2023/09/06 02:05:54;;;;;;;11.93;6.25;;;;;;;14.92;72.63;99316.31;5074414;28;20090;-78
2023/09/06 02:08:21;;;;;;;7.07;5.20;;;;;;;14.89;73.27;99306.75;5057415;28;20066;-78
2023/09/06 02:10:47;;;;;;;7.97;5.05;;;;;;;14.91;72.54;99298.53;5057004;28;20058;-78
2023/09/06 02:13:13;;;;;;;17.63;5.38;;;;;;;14.94;72.11;99314.34;5058619;28;20040;-78
2023/09/06 02:15:38;;;;;;;8.35;4.78;;;;;;;14.98;72.09;99310.38;5074641;28;20047;-77
2023/09/06 02:18:04;;;;;;;6.75;4.90;;;;;;;14.98;72.13;99304.16;5057888;28;20043;-75
2023/09/06 02:20:30;;;;;;;7.45;5.32;;;;;;;15.00;71.52;99302.19;5073443;28;20117;-76
2023/09/06 02:22:56;;;;;;;12.45;5.20;;;;;;;14.98;72.28;99291.59;5086028;27;20041;-75
2023/09/06 02:25:24;;;;;;;7.75;5.35;;;;;;;14.98;72.02;99310.38;5112967;27;20064;-75
2023/09/06 02:27:50;;;;;;;6.80;4.70;;;;;;;15.01;71.70;99285.91;5116168;27;20042;-74
2023/09/06 02:30:15;;;;;;;10.40;5.05;;;;;;;15.03;71.43;99291.13;5078009;27;20814;-74
2023/09/06 02:32:40;;;;;;;7.28;4.53;;;;;;;15.00;71.37;99280.72;5117128;27;20429;-77
2023/09/06 02:35:07;;;;;;;9.02;5.22;;;;;;;15.04;71.39;99307.09;5099317;27;20038;-73
2023/09/06 02:37:32;;;;;;;8.48;4.50;;;;;;;15.04;70.95;99308.94;5117795;27;20046;-78
2023/09/06 02:39:58;;;;;;;9.73;5.43;;;;;;;15.01;71.19;99293.16;5082634;27;20042;-78
2023/09/06 02:42:23;;;;;;;7.07;4.57;;;;;;;15.00;71.57;99288.78;5098073;27;20034;-80
2023/09/06 02:44:50;;;;;;;10.10;4.43;;;;;;;15.05;71.50;99257.78;5068046;27;20409;-79
2023/09/06 02:47:17;;;;;;;10.88;4.65;;;;;;;15.02;71.18;99289.44;5080142;28;20039;-77
2023/09/06 02:49:43;;;;;;;6.20;4.20;;;;;;;15.00;71.85;99292.31;5098144;28;20047;-77
2023/09/06 02:52:20;;;;;;;7.10;4.32;;;;;;;15.09;71.43;99285.19;5114011;27;20035;-77
2023/09/06 02:54:47;;;;;;;7.50;4.63;;;;;;;15.08;70.97;99288.88;5081136;27;20492;-73
2023/09/06 02:57:14;;;;;;;5.97;4.53;;;;;;;15.08;71.56;99294.25;5098208;27;20069;-73
2023/09/06 02:59:39;;;;;;;6.47;4.40;;;;;;;15.09;71.26;99302.16;5096372;27;20046;-72
2023/09/06 03:02:05;;;;;;;8.65;4.93;;;;;;;15.13;71.15;99294.63;5097869;27;20034;-72
2023/09/06 03:04:37;;;;;;;9.13;4.65;;;;;;;15.17;71.41;99285.31;5097013;27;20043;-73
2023/09/06 03:07:07;;;;;;;7.35;4.85;;;;;;;15.21;71.26;99284.88;5096920;27;20062;-70
2023/09/06 03:09:35;;;;;;;8.73;5.20;;;;;;;15.24;70.69;99272.97;5082854;27;20061;-71
2023/09/06 03:12:14;;;;;;;6.50;4.43;;;;;;;15.26;70.58;99287.09;5065743;27;20051;-72
2023/09/06 03:14:44;;;;;;;7.93;4.80;;;;;;;15.20;71.33;99274.28;5066356;27;20092;-71
2023/09/06 03:17:22;;;;;;;9.05;4.53;;;;;;;15.23;71.11;99292.78;5080396;27;20050;-72
2023/09/06 03:19:59;;;;;;;6.32;4.43;;;;;;;15.29;71.44;99272.53;5062829;27;20112;-73
2023/09/06 03:22:27;;;;;;;13.48;5.38;;;;;;;15.29;71.44;99276.06;5079977;27;20412;-73
2023/09/06 03:24:55;;;;;;;8.18;4.53;;;;;;;15.31;71.44;99278.59;5101394;27;20058;-72
2023/09/06 03:27:21;;;;;;;7.35;4.20;;;;;;;15.35;71.09;99280.00;5083992;27;20061;-72
2023/09/06 03:29:51;;;;;;;8.25;4.70;;;;;;;15.41;70.73;99253.38;5084193;27;20042;-73
2023/09/06 03:32:18;;;;;;;7.78;4.53;;;;;;;15.49;70.23;99264.22;5101008;27;20038;-73
2023/09/06 03:34:45;;;;;;;9.32;5.22;;;;;;;15.54;70.18;99247.66;5119461;27;20038;-72
2023/09/06 03:37:11;;;;;;;14.02;4.70;;;;;;;15.59;69.63;99262.34;5101086;27;20053;-73
2023/09/06 03:39:42;;;;;;;7.50;4.28;;;;;;;15.66;69.95;99256.41;5100868;27;20035;-72
2023/09/06 03:42:08;;;;;;;6.13;4.68;;;;;;;15.69;69.42;99251.53;5100663;27;20047;-73
2023/09/06 03:44:38;;;;;;;7.90;4.97;;;;;;;15.74;69.19;99249.25;5119399;27;20519;-72
2023/09/06 03:47:05;;;;;;;7.75;3.97;;;;;;;15.77;69.59;99243.59;5119585;27;20416;-75
2023/09/06 03:49:35;;;;;;;5.60;4.03;;;;;;;15.79;69.12;99240.75;5119227;27;20408;-74
2023/09/06 03:52:05;;;;;;;9.93;4.75;;;;;;;15.84;68.96;99223.16;5100547;27;20047;-74
2023/09/06 03:54:34;;;;;;;5.53;4.03;;;;;;;15.91;68.74;99228.78;5066690;27;20046;-75
2023/09/06 03:57:04;;;;;;;6.43;4.38;;;;;;;15.91;68.52;99226.91;5119774;27;20043;-74
2023/09/06 03:59:35;;;;;;;7.40;4.35;;;;;;;15.94;68.47;99249.94;5083396;27;20729;-74
2023/09/06 04:02:02;;;;;;;7.22;4.40;;;;;;;15.98;68.03;99229.84;5118890;27;20058;-74
2023/09/06 04:04:29;;;;;;;7.40;4.72;;;;;;;16.03;68.29;99215.94;5082856;27;20046;-74
2023/09/06 04:06:55;;;;;;;6.20;4.25;;;;;;;16.04;67.98;99218.44;5083321;27;20055;-74
2023/09/06 04:09:27;;;;;;;9.18;4.30;;;;;;;16.09;67.59;99205.41;5100938;27;20042;-75
2023/09/06 04:11:53;;;;;;;8.10;5.20;;;;;;;16.07;67.56;99196.63;5082611;27;20057;-74
2023/09/06 04:14:18;;;;;;;6.32;4.47;;;;;;;16.08;68.06;99197.50;5083124;27;20043;-74
2023/09/06 04:16:43;;;;;;;6.28;4.25;;;;;;;16.12;67.82;99196.19;5100283;27;20489;-73
2023/09/06 04:19:08;;;;;;;6.05;4.22;;;;;;;16.09;67.77;99220.69;5082305;27;20078;-75
2023/09/06 04:21:34;;;;;;;6.45;4.32;;;;;;;16.12;67.61;99202.41;5100362;27;20049;-73
2023/09/06 04:23:59;;;;;;;9.43;4.70;;;;;;;16.17;67.75;99228.81;5118471;27;20042;-75
2023/09/06 04:26:25;;;;;;;6.43;4.70;;;;;;;16.29;67.46;99212.28;5099763;27;20043;-74
2023/09/06 04:28:52;;;;;;;6.82;4.68;;;;;;;16.47;67.73;99188.06;5082552;27;20054;-74
2023/09/06 04:31:19;;;;;;;8.50;5.28;;;;;;;16.64;67.08;99195.25;5099592;27;20038;-73
2023/09/06 04:33:46;;;;;;;8.15;5.45;;;;;;;16.78;66.23;99201.88;5098685;27;20053;-74
2023/09/06 04:36:19;;;;;;;10.10;5.03;;;;;;;16.84;65.61;99179.69;5083590;27;20043;-74
2023/09/06 04:38:46;;;;;;;6.95;4.32;;;;;;;16.85;65.74;99186.78;5099669;27;20050;-74
2023/09/06 04:41:14;;;;;;;9.85;4.80;;;;;;;16.87;65.75;99216.22;5082583;27;20042;-76
2023/09/06 04:43:49;;;;;;;11.25;5.13;;;;;;;17.06;65.81;99179.13;5099456;27;20034;-74
2023/09/06 04:46:14;;;;;;;9.18;5.70;;;;;;;17.26;65.47;99184.28;5099638;27;20047;-73
2023/09/06 04:48:43;;;;;;;8.35;5.03;;;;;;;17.60;65.29;99182.34;5082221;27;20046;-75
2023/09/06 04:51:08;;;;;;;12.50;5.18;;;;;;;18.03;63.51;99189.34;5117930;27;20054;-74
2023/09/06 04:53:34;;;;;;;9.20;4.97;;;;;;;18.30;62.33;99185.44;5117787;27;20035;-75
2023/09/06 04:56:03;;;;;;;6.28;4.57;;;;;;;18.41;61.60;99193.19;5066892;27;20057;-80
2023/09/06 04:58:35;;;;;;;7.35;4.90;;;;;;;18.63;61.17;99188.97;5101286;27;20043;-79
2023/09/06 05:01:07;;;;;;;7.75;5.28;;;;;;;19.03;60.82;99179.91;5120466;27;20381;-79
2023/09/06 05:03:33;;;;;;;9.43;5.03;;;;;;;19.26;59.12;99187.25;5067565;27;20179;-81
2023/09/06 05:06:00;;;;;;;7.60;4.63;;;;;;;19.33;58.75;99188.22;5084950;27;20051;-80
2023/09/06 05:08:26;;;;;;;10.13;5.10;;;;;;;19.31;58.10;99201.06;5101607;27;20054;-77
2023/09/06 05:10:51;;;;;;;7.53;4.57;;;;;;;19.37;58.25;99194.97;5102084;27;20049;-79
2023/09/06 05:13:18;;;;;;;8.73;5.68;;;;;;;19.33;58.10;99204.44;5102114;27;20034;-81
2023/09/06 05:15:44;;;;;;;12.00;5.00;;;;;;;19.25;58.23;99201.78;5085323;27;20051;-79
2023/09/06 05:18:11;;;;;;;8.73;5.28;;;;;;;19.13;58.90;99174.28;5085137;27;20042;-79
2023/09/06 05:20:39;;;;;;;7.35;4.63;;;;;;;19.19;58.78;99187.09;5101393;27;20066;-79
2023/09/06 05:23:14;;;;;;;6.13;5.10;;;;;;;19.50;58.73;99165.53;5085497;27;20046;-77
2023/09/06 05:25:41;;;;;;;5.88;4.22;;;;;;;19.75;57.95;99172.44;5101318;27;20049;-78
2023/09/06 05:28:12;;;;;;;7.68;4.97;;;;;;;19.81;57.01;99177.16;5101474;27;20385;-79
2023/09/06 05:30:44;;;;;;;6.20;4.40;;;;;;;19.96;56.79;99184.50;5101595;27;20050;-80
2023/09/06 05:33:13;;;;;;;8.63;5.50;;;;;;;20.15;56.50;99184.00;5100971;27;20485;-79
2023/09/06 05:35:42;;;;;;;6.35;4.75;;;;;;;20.30;55.74;99155.13;5101202;27;20042;-79
2023/09/06 05:38:11;;;;;;;8.57;5.28;;;;;;;20.53;55.86;99149.66;5101402;27;20049;-79
2023/09/06 05:40:43;;;;;;;8.93;4.65;;;;;;;20.92;55.07;99143.97;5101373;27;20054;-79
2023/09/06 05:43:13;;;;;;;9.77;4.40;;;;;;;21.27;54.24;99175.75;5101619;27;20039;-79
2023/09/06 05:45:39;;;;;;;8.85;4.82;;;;;;;21.62;53.06;99170.53;5100797;27;20062;-77
2023/09/06 05:48:05;;;;;;;8.32;4.75;;;;;;;22.15;52.07;99130.34;5063593;27;20535;-74
2023/09/06 05:50:31;;;;;;;6.50;4.68;;;;;;;22.99;50.45;99134.72;5098367;27;20054;-75
2023/09/06 05:52:57;;;;;;;8.07;4.95;;;;;;;24.11;48.29;99135.06;5081693;27;20049;-75
2023/09/06 05:55:23;;;;;;;8.00;4.57;;;;;;;25.26;44.43;99126.31;5098262;27;20075;-75
2023/09/06 05:57:50;;;;;;;7.65;5.25;;;;;;;26.25;42.87;99113.94;5080676;27;20516;-76
2023/09/06 06:00:17;;;;;;;9.98;4.15;;;;;;;27.10;40.93;99109.53;5098015;27;20412;-75
2023/09/06 06:02:49;;;;;;;8.32;4.55;;;;;;;27.89;39.49;99074.75;5094422;27;20035;-73
2023/09/06 06:05:18;;;;;;;8.23;4.40;;;;;;;28.66;38.00;99100.25;5094477;27;20043;-72
2023/09/06 06:07:43;;;;;;;12.07;4.85;;;;;;;29.35;36.73;99123.97;5076920;27;20055;-73
2023/09/06 06:10:09;;;;;;;7.50;4.43;;;;;;;29.47;35.99;99108.31;5076513;27;20062;-72
2023/09/06 06:12:35;;;;;;;7.85;4.65;;;;;;;29.55;35.53;99096.97;5077667;27;20058;-76
2023/09/06 06:15:00;;;;;;;8.57;4.70;;;;;;;30.11;35.01;99092.50;5094874;27;20042;-77
2023/09/06 06:17:25;;;;;;;6.15;4.45;;;;;;;30.90;33.84;99100.59;5094836;27;20386;-75
2023/09/06 06:19:51;;;;;;;8.27;4.60;;;;;;;31.34;33.24;99101.47;5094072;27;20047;-75
2023/09/06 06:22:16;;;;;;;8.73;5.13;;;;;;;31.95;32.53;99107.63;5094057;27;20054;-75
2023/09/06 06:24:45;;;;;;;9.10;5.20;;;;;;;32.66;31.54;99117.34;5107101;27;20039;-76
2023/09/06 06:27:10;;;;;;;6.68;4.93;;;;;;;32.47;30.85;99118.88;5116116;27;20070;-75
2023/09/06 06:29:36;;;;;;;4.63;4.18;;;;;;;31.93;31.28;99107.09;5115930;27;20035;-75
2023/09/06 06:32:01;;;;;;;5.03;4.55;;;;;;;31.12;32.65;99100.66;5116422;27;20043;-75
2023/09/06 06:34:26;;;;;;;7.07;4.80;;;;;;;30.55;33.71;99121.03;5097531;27;20043;-76
2023/09/06 06:36:51;;;;;;;5.40;4.05;;;;;;;30.77;33.76;99093.53;5096759;27;20053;-75
2023/09/06 06:39:17;;;;;;;6.05;4.80;;;;;;;30.95;33.21;99097.91;5116150;27;20046;-75
2023/09/06 06:41:44;;;;;;;5.97;4.60;;;;;;;31.58;32.59;99091.00;5116329;27;20255;-74
2023/09/06 06:44:09;;;;;;;5.55;4.57;;;;;;;32.58;31.33;99075.63;5097816;27;20046;-75
2023/09/06 06:46:36;;;;;;;5.95;4.30;;;;;;;33.64;29.69;99089.94;5097096;27;20057;-76
2023/09/06 06:49:04;;;;;;;7.85;4.93;;;;;;;34.63;28.63;99072.03;5097891;27;20043;-75
2023/09/06 06:51:35;;;;;;;8.65;4.95;;;;;;;35.61;27.12;99083.31;5097937;27;20152;-76
2023/09/06 06:54:00;;;;;;;6.65;5.13;;;;;;;36.12;26.31;99069.09;5116008;27;20035;-75
2023/09/06 06:56:25;;;;;;;8.57;5.32;;;;;;;36.95;25.75;99066.09;5116095;27;20488;-75
2023/09/06 06:58:51;;;;;;;8.52;4.85;;;;;;;37.96;24.81;99063.06;5119537;27;20518;-75
2023/09/06 07:01:16;;;;;;;7.75;5.80;;;;;;;38.34;24.09;99053.53;5120052;27;20047;-75
2023/09/06 07:03:41;;;;;;;5.28;4.78;;;;;;;38.40;23.78;99057.88;5101807;27;20027;-75
2023/09/06 07:06:08;;;;;;;9.35;5.18;;;;;;;38.63;23.33;99072.78;5101190;27;20054;-75
2023/09/06 07:08:33;;;;;;;6.15;5.25;;;;;;;38.70;23.54;99077.97;5101708;27;20077;-75
2023/09/06 07:11:03;;;;;;;7.18;5.53;;;;;;;38.86;23.16;99062.59;5101628;27;20051;-75
2023/09/06 07:13:29;;;;;;;6.78;5.18;;;;;;;39.06;23.03;99058.59;5101427;27;20049;-77
2023/09/06 07:15:54;;;;;;;10.13;6.75;;;;;;;39.35;22.70;99055.47;5100145;27;20057;-73
2023/09/06 07:18:19;;;;;;;8.25;5.78;;;;;;;39.68;22.46;99043.00;5119401;27;20400;-75
2023/09/06 07:20:44;;;;;;;8.18;5.80;;;;;;;40.33;22.04;99058.47;5100551;27;20424;-76
2023/09/06 07:23:09;;;;;;;9.50;6.35;;;;;;;40.86;21.48;99038.91;5100693;27;20038;-76
2023/09/06 07:25:34;;;;;;;8.93;5.55;;;;;;;40.99;21.15;99052.72;5083698;27;20054;-76
2023/09/06 07:28:00;;;;;;;19.63;7.25;;;;;;;41.15;21.03;99053.16;5101122;27;20042;-75
2023/09/06 07:30:26;;;;;;;6.70;5.68;;;;;;;40.62;21.61;99054.06;5119267;27;20038;-74
2023/09/06 07:32:51;;;;;;;10.77;6.43;;;;;;;40.94;21.53;99052.91;5100858;27;20054;-74
2023/09/06 07:35:16;;;;;;;10.63;5.65;;;;;;;40.98;21.29;99048.28;5100322;27;20042;-75
2023/09/06 07:37:43;;;;;;;8.70;6.57;;;;;;;40.76;21.61;99047.53;5119329;27;20532;-75
2023/09/06 07:40:09;;;;;;;6.60;5.85;;;;;;;40.30;21.98;99051.56;5093572;27;20047;-75
2023/09/06 07:42:40;;;;;;;6.72;6.03;;;;;;;40.47;21.86;99076.81;5118034;27;20548;-77
2023/09/06 07:45:07;;;;;;;7.95;5.55;;;;;;;40.82;21.34;99051.84;5120339;27;20511;-78
2023/09/06 07:47:32;;;;;;;6.53;5.82;;;;;;;40.31;21.73;99050.41;5102518;27;20066;-78
2023/09/06 07:49:57;;;;;;;6.05;5.45;;;;;;;38.62;23.18;99048.84;5121133;27;20042;-79
2023/09/06 07:52:22;;;;;;;6.90;5.45;;;;;;;36.63;25.28;99041.72;5068328;27;20050;-77
2023/09/06 07:54:48;;;;;;;6.07;5.40;;;;;;;34.87;27.52;99055.66;5102253;27;20043;-76
2023/09/06 07:57:13;;;;;;;8.68;5.78;;;;;;;33.42;29.38;99043.19;5067282;27;20058;-76
2023/09/06 07:59:38;;;;;;;7.57;5.20;;;;;;;31.99;31.17;99048.13;5119448;27;20485;-74
2023/09/06 08:02:04;;;;;;;7.65;5.18;;;;;;;30.73;32.97;99058.53;5119574;27;20042;-76
2023/09/06 08:04:29;;;;;;;6.05;4.85;;;;;;;30.18;34.33;99057.41;5099959;27;20046;-76
2023/09/06 08:06:55;;;;;;;10.88;5.63;;;;;;;30.06;34.93;99062.16;5119130;27;20059;-76
2023/09/06 08:09:20;;;;;;;8.85;4.78;;;;;;;30.39;34.26;99075.06;5099798;27;20069;-77
2023/09/06 08:11:46;;;;;;;8.45;4.97;;;;;;;31.50;33.03;99050.94;5118865;27;20882;-75
2023/09/06 08:14:11;;;;;;;6.35;4.97;;;;;;;31.98;31.71;99049.22;5119003;27;20043;-77
2023/09/06 08:16:36;;;;;;;13.35;5.00;;;;;;;32.24;31.07;99053.88;5099636;27;20042;-75
2023/09/06 08:19:03;;;;;;;7.38;4.15;;;;;;;31.76;31.51;99063.09;5096327;27;20120;-74
2023/09/06 08:21:28;;;;;;;7.15;4.47;;;;;;;31.01;32.67;99055.59;5096696;27;20043;-75
2023/09/06 08:23:53;;;;;;;8.30;4.60;;;;;;;30.06;34.03;99062.16;5096651;27;20051;-77
2023/09/06 08:26:18;;;;;;;6.50;4.38;;;;;;;29.61;34.94;99068.50;5097373;27;20489;-76
2023/09/06 08:28:43;;;;;;;9.02;5.20;;;;;;;28.79;36.21;99064.34;5110636;27;20038;-75
2023/09/06 08:31:09;;;;;;;7.03;4.90;;;;;;;28.25;37.04;99073.75;5100099;27;20493;-77
2023/09/06 08:33:34;;;;;;;6.82;4.65;;;;;;;28.15;37.14;99071.56;5119116;27;20038;-77
2023/09/06 08:35:59;;;;;;;6.00;4.22;;;;;;;30.14;34.73;99027.91;5118623;27;20038;-76
2023/09/06 08:38:24;;;;;;;5.65;4.45;;;;;;;31.44;32.46;99064.94;5082257;27;20050;-76
2023/09/06 08:40:50;;;;;;;6.18;4.20;;;;;;;32.78;30.78;99054.53;5118685;27;20058;-76
2023/09/06 08:43:18;;;;;;;6.72;4.53;;;;;;;35.11;27.85;99009.53;5099725;27;20489;-75
2023/09/06 08:45:45;;;;;;;5.28;4.13;;;;;;;37.06;24.84;99058.44;5118874;27;20043;-74
2023/09/06 08:48:11;;;;;;;6.72;4.22;;;;;;;37.38;23.98;99055.00;5082503;27;20814;-75
2023/09/06 08:50:37;;;;;;;6.07;4.38;;;;;;;37.72;23.04;99033.38;5118725;27;20478;-74
2023/09/06 08:53:04;;;;;;;11.13;5.45;;;;;;;36.80;24.21;99084.91;5118872;27;20053;-75
2023/09/06 08:55:30;;;;;;;6.40;4.35;;;;;;;35.69;25.28;99065.22;5118949;27;20404;-75
2023/09/06 08:57:57;;;;;;;7.38;4.43;;;;;;;34.78;26.63;99060.09;5117781;27;20183;-75
2023/09/06 09:00:23;;;;;;;7.35;4.50;;;;;;;33.73;27.78;99070.91;5082236;27;20066;-75
2023/09/06 09:02:50;;;;;;;7.72;5.13;;;;;;;32.51;28.98;99073.09;5119089;27;20527;-76
2023/09/06 09:05:15;;;;;;;5.40;4.63;;;;;;;31.30;29.84;99076.34;5099310;27;20405;-76
2023/09/06 09:07:41;;;;;;;10.77;4.47;;;;;;;30.01;32.32;99077.75;5099058;27;20046;-76
2023/09/06 09:10:09;;;;;;;8.75;3.95;;;;;;;28.83;33.72;99077.34;5118243;27;20050;-76
2023/09/06 09:12:39;;;;;;;5.85;4.18;;;;;;;27.81;35.56;99092.38;5118016;27;20058;-77
2023/09/06 09:15:07;;;;;;;5.43;4.10;;;;;;;26.99;37.18;99094.72;5099639;27;20378;-76
2023/09/06 09:17:39;;;;;;;15.05;4.90;;;;;;;26.42;38.43;99084.16;5100009;27;20160;-75
2023/09/06 09:20:06;;;;;;;6.18;4.57;;;;;;;25.93;39.22;99110.41;5117024;27;20050;-77
2023/09/06 09:22:37;;;;;;;6.97;4.22;;;;;;;25.51;40.48;99054.56;5117775;27;20119;-77
2023/09/06 09:25:16;;;;;;;7.20;4.95;;;;;;;25.17;40.86;99108.50;5118071;27;20047;-74
2023/09/06 09:27:47;;;;;;;6.05;3.97;;;;;;;24.90;41.44;99113.19;5100056;27;20046;-76
2023/09/06 09:30:16;;;;;;;5.85;3.90;;;;;;;24.62;41.49;99104.44;5099508;27;20057;-75
2023/09/06 09:32:42;;;;;;;8.98;3.63;;;;;;;24.49;42.25;99126.28;5118102;27;20503;-75
2023/09/06 09:35:10;;;;;;;4.75;3.85;;;;;;;24.40;42.42;99105.75;5098680;27;20035;-76
2023/09/06 09:37:39;;;;;;;7.50;3.88;;;;;;;24.53;42.81;99119.34;5098268;27;20058;-75
2023/09/06 09:40:20;;;;;;;5.13;3.80;;;;;;;24.93;42.99;99117.44;5117205;27;20030;-75
2023/09/06 09:42:57;;;;;;;11.43;4.32;;;;;;;25.09;43.24;99121.53;5117380;27;20062;-76
2023/09/06 09:45:28;;;;;;;11.48;4.03;;;;;;;25.08;42.49;99111.69;5098929;27;20045;-76
2023/09/06 09:47:55;;;;;;;10.93;4.30;;;;;;;25.20;42.68;99115.41;5116652;27;20057;-77
2023/09/06 09:50:22;;;;;;;6.40;3.83;;;;;;;25.30;42.60;99102.97;5117290;27;20562;-75
2023/09/06 09:52:48;;;;;;;9.10;3.97;;;;;;;25.61;42.90;99104.97;5117415;27;20489;-76
2023/09/06 09:55:15;;;;;;;5.70;3.90;;;;;;;26.10;42.33;99092.41;5080738;27;20050;-76
2023/09/06 09:57:43;;;;;;;4.38;3.90;;;;;;;26.22;42.40;99112.47;5116341;27;20053;-75
2023/09/06 10:00:12;;;;;;;4.95;3.53;;;;;;;25.72;42.33;99113.50;5114534;27;20046;-75
2023/09/06 10:02:45;;;;;;;4.80;3.72;;;;;;;24.77;43.55;99101.47;5096535;27;20053;-74
2023/09/06 10:05:20;;;;;;;4.13;3.65;;;;;;;23.74;46.12;99111.16;5097605;27;20518;-75
2023/09/06 10:07:47;;;;;;;5.13;3.75;;;;;;;22.85;48.00;99132.13;5097539;27;20063;-74
2023/09/06 10:10:13;;;;;;;7.90;3.50;;;;;;;22.15;49.76;99125.75;5115886;27;20042;-74
2023/09/06 10:12:49;;;;;;;5.07;3.72;;;;;;;21.72;52.28;99130.34;5095581;27;20042;-75
2023/09/06 10:15:14;;;;;;;6.90;4.00;;;;;;;21.06;52.99;99134.16;5115418;27;20049;-75
2023/09/06 10:17:41;;;;;;;10.38;4.32;;;;;;;20.61;53.32;99126.03;5097755;27;20050;-76
2023/09/06 10:20:12;;;;;;;10.05;4.47;;;;;;;20.28;54.19;99146.31;5080598;27;20042;-76
2023/09/06 10:22:44;;;;;;;9.00;4.10;;;;;;;20.09;55.25;99146.84;5115433;27;20046;-75
2023/09/06 10:25:10;;;;;;;11.48;4.00;;;;;;;20.07;55.59;99138.06;5097134;27;20038;-76
2023/09/06 10:27:47;;;;;;;5.90;3.97;;;;;;;20.41;55.30;99170.94;5096143;27;20049;-75
2023/09/06 10:30:19;;;;;;;6.07;3.65;;;;;;;20.68;54.50;99136.97;5115834;27;20046;-76
2023/09/06 10:32:46;;;;;;;7.53;3.70;;;;;;;21.07;53.64;99135.84;5084463;27;20050;-74
2023/09/06 10:35:32;;;;;;;9.45;4.50;;;;;;;21.60;51.97;99137.31;5116238;27;20041;-73
2023/09/06 10:38:15;;;;;;;3.47;3.10;;;;;;;21.80;51.16;99124.78;5114247;27;20053;-74
2023/09/06 10:40:47;;;;;;;5.55;3.90;;;;;;;21.61;51.79;99130.88;5097648;27;20039;-75
2023/09/06 10:43:16;;;;;;;3.80;3.33;;;;;;;21.20;52.44;99146.88;5116332;27;20046;-75
2023/09/06 10:45:57;;;;;;;4.80;3.67;;;;;;;20.98;53.55;99126.97;5116116;27;20046;-75
2023/09/06 10:48:23;;;;;;;4.18;3.13;;;;;;;20.56;53.62;99133.88;5115169;27;20050;-76
2023/09/06 10:51:12;;;;;;;5.18;3.67;;;;;;;20.42;54.39;99131.16;5096398;27;20061;-73
2023/09/06 10:53:40;;;;;;;4.57;2.90;;;;;;;20.23;54.88;99144.16;5112505;27;20046;-75
2023/09/06 10:56:06;;;;;;;6.32;3.28;;;;;;;20.31;54.24;99146.78;5115637;27;21540;-74
2023/09/06 10:58:35;;;;;;;4.20;3.38;;;;;;;20.45;53.81;99130.78;5076348;27;20062;-72
2023/09/06 11:01:18;;;;;;;3.97;3.67;;;;;;;20.64;52.86;99120.25;5113850;27;20037;-75
2023/09/06 11:03:50;;;;;;;7.50;3.80;;;;;;;20.74;52.41;99119.13;5115531;27;20062;-73
2023/09/06 11:06:18;;;;;;;5.15;3.38;;;;;;;20.68;52.15;99126.13;5115778;27;20065;-74
2023/09/06 11:08:45;;;;;;;4.28;3.03;;;;;;;20.54;52.71;99108.03;5096225;27;20051;-75
2023/09/06 11:11:13;;;;;;;5.47;3.83;;;;;;;20.45;52.42;99119.94;5115692;27;20035;-75
2023/09/06 11:13:42;;;;;;;7.93;3.55;;;;;;;20.43;52.62;99117.41;5096769;27;20531;-75
2023/09/06 11:16:18;;;;;;;5.00;3.03;;;;;;;20.50;51.62;99118.38;5078968;27;20051;-75
2023/09/06 11:18:45;;;;;;;4.28;3.00;;;;;;;20.56;51.76;99128.47;5096601;27;20493;-74
2023/09/06 11:21:14;;;;;;;4.60;3.20;;;;;;;20.73;50.70;99115.59;5096204;27;20050;-73
2023/09/06 11:23:44;;;;;;;4.97;3.10;;;;;;;20.95;49.92;99132.75;5114958;27;20042;-73
2023/09/06 11:26:09;;;;;;;9.68;3.30;;;;;;;21.12;48.65;99107.13;5115100;27;20054;-72
2023/09/06 11:28:35;;;;;;;5.47;3.22;;;;;;;21.35;47.81;99120.56;5114894;27;20038;-72
2023/09/06 11:31:04;;;;;;;5.90;2.88;;;;;;;21.59;46.96;99114.78;5117090;27;20038;-73
2023/09/06 11:33:31;;;;;;;4.72;3.05;;;;;;;21.79;46.34;99120.38;5118825;27;20049;-76